sensor_id;sensor_type;location;lat;lon;timestamp;P1;durP1;ratioP1;P2;durP2;ratioP2
52015;SDS011;38032;53.326;6.472;2023-06-14T00:01:44;5.03;;;2.28;;
52015;SDS011;38032;53.326;6.472;2023-06-14T00:04:11;6.72;;;2.20;;
52015;SDS011;38032;53.326;6.472;2023-06-14T00:06:38;5.30;;;2.15;;
52015;SDS011;38032;53.326;6.472;2023-06-14T00:09:04;6.60;;;2.30;;
52015;SDS011;38032;53.326;6.472;2023-06-14T00:11:30;4.65;;;2.20;;
52015;SDS011;38032;53.326;6.472;2023-06-14T00:13:57;5.88;;;2.53;;
52015;SDS011;38032;53.326;6.472;2023-06-14T00:16:23;3.85;;;2.38;;
52015;SDS011;38032;53.326;6.472;2023-06-14T00:18:49;5.55;;;2.50;;
52015;SDS011;38032;53.326;6.472;2023-06-14T00:21:17;5.93;;;2.30;;
52015;SDS011;38032;53.326;6.472;2023-06-14T00:23:43;4.55;;;2.67;;
52015;SDS011;38032;53.326;6.472;2023-06-14T00:26:09;9.00;;;2.80;;
52015;SDS011;38032;53.326;6.472;2023-06-14T00:28:35;4.43;;;2.55;;
52015;SDS011;38032;53.326;6.472;2023-06-14T00:31:01;7.45;;;2.58;;
52015;SDS011;38032;53.326;6.472;2023-06-14T00:33:27;5.22;;;2.00;;
52015;SDS011;38032;53.326;6.472;2023-06-14T00:35:53;4.75;;;2.70;;
52015;SDS011;38032;53.326;6.472;2023-06-14T00:38:19;4.72;;;2.40;;
52015;SDS011;38032;53.326;6.472;2023-06-14T00:40:46;5.10;;;2.25;;
52015;SDS011;38032;53.326;6.472;2023-06-14T00:43:12;4.55;;;2.40;;
52015;SDS011;38032;53.326;6.472;2023-06-14T00:45:37;4.40;;;2.35;;
52015;SDS011;38032;53.326;6.472;2023-06-14T00:48:04;5.65;;;2.30;;
52015;SDS011;38032;53.326;6.472;2023-06-14T00:50:32;5.20;;;2.25;;
52015;SDS011;38032;53.326;6.472;2023-06-14T00:53:00;7.78;;;2.42;;
52015;SDS011;38032;53.326;6.472;2023-06-14T00:55:26;4.55;;;2.30;;
52015;SDS011;38032;53.326;6.472;2023-06-14T00:57:54;5.43;;;2.50;;
52015;SDS011;38032;53.326;6.472;2023-06-14T01:00:21;5.60;;;2.20;;
52015;SDS011;38032;53.326;6.472;2023-06-14T01:02:47;3.72;;;2.10;;
52015;SDS011;38032;53.326;6.472;2023-06-14T01:05:14;3.20;;;2.10;;
52015;SDS011;38032;53.326;6.472;2023-06-14T01:13:03;5.70;;;2.22;;
52015;SDS011;38032;53.326;6.472;2023-06-14T01:15:38;6.45;;;2.20;;
52015;SDS011;38032;53.326;6.472;2023-06-14T01:18:04;4.25;;;2.17;;
52015;SDS011;38032;53.326;6.472;2023-06-14T01:20:32;5.28;;;2.25;;
52015;SDS011;38032;53.326;6.472;2023-06-14T01:23:01;4.32;;;1.90;;
52015;SDS011;38032;53.326;6.472;2023-06-14T01:25:27;4.80;;;2.53;;
52015;SDS011;38032;53.326;6.472;2023-06-14T01:28:00;3.65;;;2.22;;
52015;SDS011;38032;53.326;6.472;2023-06-14T01:30:29;5.00;;;2.35;;
52015;SDS011;38032;53.326;6.472;2023-06-14T01:32:58;4.18;;;2.38;;
52015;SDS011;38032;53.326;6.472;2023-06-14T01:35:24;4.78;;;2.30;;
52015;SDS011;38032;53.326;6.472;2023-06-14T01:37:50;4.82;;;2.50;;
52015;SDS011;38032;53.326;6.472;2023-06-14T01:40:17;4.65;;;2.55;;
52015;SDS011;38032;53.326;6.472;2023-06-14T01:42:46;4.93;;;2.72;;
52015;SDS011;38032;53.326;6.472;2023-06-14T01:45:14;4.13;;;2.42;;
52015;SDS011;38032;53.326;6.472;2023-06-14T01:47:41;5.47;;;2.90;;
52015;SDS011;38032;53.326;6.472;2023-06-14T01:50:08;4.18;;;2.72;;
52015;SDS011;38032;53.326;6.472;2023-06-14T01:52:36;4.97;;;2.60;;
52015;SDS011;38032;53.326;6.472;2023-06-14T01:55:02;9.05;;;2.95;;
52015;SDS011;38032;53.326;6.472;2023-06-14T01:57:29;5.38;;;2.80;;
52015;SDS011;38032;53.326;6.472;2023-06-14T01:59:55;4.32;;;2.53;;
52015;SDS011;38032;53.326;6.472;2023-06-14T02:02:21;3.92;;;2.60;;
52015;SDS011;38032;53.326;6.472;2023-06-14T02:04:47;6.00;;;2.50;;
52015;SDS011;38032;53.326;6.472;2023-06-14T02:07:13;5.90;;;2.90;;
52015;SDS011;38032;53.326;6.472;2023-06-14T02:09:40;5.78;;;2.80;;
52015;SDS011;38032;53.326;6.472;2023-06-14T02:12:06;5.57;;;2.53;;
52015;SDS011;38032;53.326;6.472;2023-06-14T02:14:32;5.05;;;2.63;;
52015;SDS011;38032;53.326;6.472;2023-06-14T02:16:58;4.93;;;2.35;;
52015;SDS011;38032;53.326;6.472;2023-06-14T02:19:26;4.18;;;2.60;;
52015;SDS011;38032;53.326;6.472;2023-06-14T02:21:52;4.40;;;2.85;;
52015;SDS011;38032;53.326;6.472;2023-06-14T02:24:18;4.95;;;2.90;;
52015;SDS011;38032;53.326;6.472;2023-06-14T02:26:44;6.00;;;2.83;;
52015;SDS011;38032;53.326;6.472;2023-06-14T02:29:09;6.07;;;2.72;;
52015;SDS011;38032;53.326;6.472;2023-06-14T02:31:37;4.60;;;2.85;;
52015;SDS011;38032;53.326;6.472;2023-06-14T02:34:03;4.30;;;2.85;;
52015;SDS011;38032;53.326;6.472;2023-06-14T02:36:29;4.55;;;2.80;;
52015;SDS011;38032;53.326;6.472;2023-06-14T02:38:55;4.05;;;2.75;;
52015;SDS011;38032;53.326;6.472;2023-06-14T02:41:23;7.80;;;3.05;;
52015;SDS011;38032;53.326;6.472;2023-06-14T02:43:49;9.65;;;3.20;;
52015;SDS011;38032;53.326;6.472;2023-06-14T02:46:15;5.70;;;3.00;;
52015;SDS011;38032;53.326;6.472;2023-06-14T02:48:41;6.05;;;3.03;;
52015;SDS011;38032;53.326;6.472;2023-06-14T02:51:07;7.10;;;2.90;;
52015;SDS011;38032;53.326;6.472;2023-06-14T02:53:35;6.78;;;3.15;;
52015;SDS011;38032;53.326;6.472;2023-06-14T02:56:02;6.95;;;2.90;;
52015;SDS011;38032;53.326;6.472;2023-06-14T02:58:29;5.45;;;3.25;;
52015;SDS011;38032;53.326;6.472;2023-06-14T03:00:55;9.75;;;3.22;;
52015;SDS011;38032;53.326;6.472;2023-06-14T03:03:21;5.63;;;3.25;;
52015;SDS011;38032;53.326;6.472;2023-06-14T03:05:50;5.47;;;3.13;;
52015;SDS011;38032;53.326;6.472;2023-06-14T03:08:16;5.28;;;2.92;;
52015;SDS011;38032;53.326;6.472;2023-06-14T03:10:47;6.60;;;3.22;;
52015;SDS011;38032;53.326;6.472;2023-06-14T03:13:14;9.25;;;3.10;;
52015;SDS011;38032;53.326;6.472;2023-06-14T03:15:42;4.38;;;3.08;;
52015;SDS011;38032;53.326;6.472;2023-06-14T03:18:10;7.20;;;3.10;;
52015;SDS011;38032;53.326;6.472;2023-06-14T03:20:37;4.75;;;3.05;;
52015;SDS011;38032;53.326;6.472;2023-06-14T03:23:04;7.03;;;3.30;;
52015;SDS011;38032;53.326;6.472;2023-06-14T03:25:31;6.28;;;3.28;;
52015;SDS011;38032;53.326;6.472;2023-06-14T03:27:58;6.53;;;3.30;;
52015;SDS011;38032;53.326;6.472;2023-06-14T03:30:24;5.78;;;3.30;;
52015;SDS011;38032;53.326;6.472;2023-06-14T03:32:49;5.80;;;3.38;;
52015;SDS011;38032;53.326;6.472;2023-06-14T03:35:21;5.32;;;3.25;;
52015;SDS011;38032;53.326;6.472;2023-06-14T03:37:48;6.97;;;3.75;;
52015;SDS011;38032;53.326;6.472;2023-06-14T03:40:15;6.38;;;3.60;;
52015;SDS011;38032;53.326;6.472;2023-06-14T03:42:43;4.75;;;3.38;;
52015;SDS011;38032;53.326;6.472;2023-06-14T03:45:09;5.93;;;3.42;;
52015;SDS011;38032;53.326;6.472;2023-06-14T03:47:35;7.78;;;3.40;;
52015;SDS011;38032;53.326;6.472;2023-06-14T03:50:01;5.60;;;3.00;;
52015;SDS011;38032;53.326;6.472;2023-06-14T03:52:28;5.22;;;3.45;;
52015;SDS011;38032;53.326;6.472;2023-06-14T03:54:54;6.57;;;3.20;;
52015;SDS011;38032;53.326;6.472;2023-06-14T03:57:21;5.18;;;3.20;;
52015;SDS011;38032;53.326;6.472;2023-06-14T03:59:48;5.60;;;3.30;;
52015;SDS011;38032;53.326;6.472;2023-06-14T04:02:14;7.07;;;3.40;;
52015;SDS011;38032;53.326;6.472;2023-06-14T04:04:42;4.97;;;3.38;;
52015;SDS011;38032;53.326;6.472;2023-06-14T04:07:11;6.35;;;3.50;;
52015;SDS011;38032;53.326;6.472;2023-06-14T04:09:37;4.97;;;3.25;;
52015;SDS011;38032;53.326;6.472;2023-06-14T04:12:04;9.25;;;3.45;;
52015;SDS011;38032;53.326;6.472;2023-06-14T04:14:31;9.15;;;3.80;;
52015;SDS011;38032;53.326;6.472;2023-06-14T04:16:58;6.97;;;3.72;;
52015;SDS011;38032;53.326;6.472;2023-06-14T04:19:24;9.35;;;3.50;;
52015;SDS011;38032;53.326;6.472;2023-06-14T04:21:50;5.57;;;3.75;;
52015;SDS011;38032;53.326;6.472;2023-06-14T04:24:16;7.53;;;3.50;;
52015;SDS011;38032;53.326;6.472;2023-06-14T04:26:42;8.57;;;4.03;;
52015;SDS011;38032;53.326;6.472;2023-06-14T04:29:10;8.45;;;3.85;;
52015;SDS011;38032;53.326;6.472;2023-06-14T04:31:39;6.93;;;3.70;;
52015;SDS011;38032;53.326;6.472;2023-06-14T04:34:06;7.70;;;3.60;;
52015;SDS011;38032;53.326;6.472;2023-06-14T04:36:33;6.63;;;3.55;;
52015;SDS011;38032;53.326;6.472;2023-06-14T04:39:01;5.93;;;3.63;;
52015;SDS011;38032;53.326;6.472;2023-06-14T04:41:28;6.28;;;3.55;;
52015;SDS011;38032;53.326;6.472;2023-06-14T04:43:57;7.93;;;3.90;;
52015;SDS011;38032;53.326;6.472;2023-06-14T04:46:28;7.50;;;3.67;;
52015;SDS011;38032;53.326;6.472;2023-06-14T04:48:55;5.95;;;3.60;;
52015;SDS011;38032;53.326;6.472;2023-06-14T04:51:21;9.02;;;4.00;;
52015;SDS011;38032;53.326;6.472;2023-06-14T04:53:55;8.32;;;3.60;;
52015;SDS011;38032;53.326;6.472;2023-06-14T04:56:23;7.03;;;3.80;;
52015;SDS011;38032;53.326;6.472;2023-06-14T04:58:51;6.85;;;3.70;;
52015;SDS011;38032;53.326;6.472;2023-06-14T05:01:18;7.53;;;3.65;;
52015;SDS011;38032;53.326;6.472;2023-06-14T05:03:44;5.68;;;3.90;;
52015;SDS011;38032;53.326;6.472;2023-06-14T05:06:14;6.00;;;3.67;;
52015;SDS011;38032;53.326;6.472;2023-06-14T05:08:41;6.90;;;4.07;;
52015;SDS011;38032;53.326;6.472;2023-06-14T05:11:06;7.25;;;4.03;;
52015;SDS011;38032;53.326;6.472;2023-06-14T05:13:32;5.90;;;4.10;;
52015;SDS011;38032;53.326;6.472;2023-06-14T05:15:59;8.70;;;3.88;;
52015;SDS011;38032;53.326;6.472;2023-06-14T05:18:26;6.78;;;3.88;;
52015;SDS011;38032;53.326;6.472;2023-06-14T05:20:51;6.05;;;3.47;;
52015;SDS011;38032;53.326;6.472;2023-06-14T05:23:17;5.78;;;3.60;;
52015;SDS011;38032;53.326;6.472;2023-06-14T05:25:44;10.95;;;4.05;;
52015;SDS011;38032;53.326;6.472;2023-06-14T05:28:10;5.72;;;3.95;;
52015;SDS011;38032;53.326;6.472;2023-06-14T05:30:38;6.53;;;3.85;;
52015;SDS011;38032;53.326;6.472;2023-06-14T05:33:05;7.85;;;3.60;;
52015;SDS011;38032;53.326;6.472;2023-06-14T05:35:31;5.97;;;3.92;;
52015;SDS011;38032;53.326;6.472;2023-06-14T05:37:57;5.25;;;3.80;;
52015;SDS011;38032;53.326;6.472;2023-06-14T05:40:23;8.05;;;4.40;;
52015;SDS011;38032;53.326;6.472;2023-06-14T05:42:48;6.60;;;3.97;;
52015;SDS011;38032;53.326;6.472;2023-06-14T05:45:14;5.80;;;3.85;;
52015;SDS011;38032;53.326;6.472;2023-06-14T05:47:41;7.22;;;3.70;;
52015;SDS011;38032;53.326;6.472;2023-06-14T05:50:07;7.53;;;3.88;;
52015;SDS011;38032;53.326;6.472;2023-06-14T05:52:34;7.53;;;4.00;;
52015;SDS011;38032;53.326;6.472;2023-06-14T05:55:00;6.20;;;3.80;;
52015;SDS011;38032;53.326;6.472;2023-06-14T05:57:26;6.05;;;4.10;;
52015;SDS011;38032;53.326;6.472;2023-06-14T05:59:52;6.03;;;3.78;;
52015;SDS011;38032;53.326;6.472;2023-06-14T06:02:18;8.85;;;4.10;;
52015;SDS011;38032;53.326;6.472;2023-06-14T06:04:44;5.93;;;3.70;;
52015;SDS011;38032;53.326;6.472;2023-06-14T06:07:10;6.40;;;3.60;;
52015;SDS011;38032;53.326;6.472;2023-06-14T06:09:36;6.75;;;3.90;;
52015;SDS011;38032;53.326;6.472;2023-06-14T06:12:01;6.03;;;3.92;;
52015;SDS011;38032;53.326;6.472;2023-06-14T06:14:28;5.65;;;3.95;;
52015;SDS011;38032;53.326;6.472;2023-06-14T06:16:54;6.13;;;3.83;;
52015;SDS011;38032;53.326;6.472;2023-06-14T06:19:20;5.90;;;3.50;;
52015;SDS011;38032;53.326;6.472;2023-06-14T06:21:45;5.72;;;3.58;;
52015;SDS011;38032;53.326;6.472;2023-06-14T06:24:11;5.85;;;3.50;;
52015;SDS011;38032;53.326;6.472;2023-06-14T06:26:37;6.60;;;3.90;;
52015;SDS011;38032;53.326;6.472;2023-06-14T06:29:04;6.93;;;3.70;;
52015;SDS011;38032;53.326;6.472;2023-06-14T06:31:31;7.32;;;3.65;;
52015;SDS011;38032;53.326;6.472;2023-06-14T06:33:56;7.38;;;3.70;;
52015;SDS011;38032;53.326;6.472;2023-06-14T06:36:22;5.00;;;3.45;;
52015;SDS011;38032;53.326;6.472;2023-06-14T06:38:48;4.93;;;3.47;;
52015;SDS011;38032;53.326;6.472;2023-06-14T06:41:14;5.32;;;3.33;;
52015;SDS011;38032;53.326;6.472;2023-06-14T06:43:40;5.07;;;3.33;;
52015;SDS011;38032;53.326;6.472;2023-06-14T06:46:06;4.57;;;3.38;;
52015;SDS011;38032;53.326;6.472;2023-06-14T06:48:31;6.03;;;3.60;;
52015;SDS011;38032;53.326;6.472;2023-06-14T06:50:57;5.72;;;3.50;;
52015;SDS011;38032;53.326;6.472;2023-06-14T06:53:23;5.70;;;3.55;;
52015;SDS011;38032;53.326;6.472;2023-06-14T06:55:49;8.18;;;3.80;;
52015;SDS011;38032;53.326;6.472;2023-06-14T06:58:15;8.32;;;3.53;;
52015;SDS011;38032;53.326;6.472;2023-06-14T07:00:41;6.88;;;3.58;;
52015;SDS011;38032;53.326;6.472;2023-06-14T07:03:07;6.45;;;3.65;;
52015;SDS011;38032;53.326;6.472;2023-06-14T07:05:33;4.68;;;3.60;;
52015;SDS011;38032;53.326;6.472;2023-06-14T07:07:59;7.43;;;3.58;;
52015;SDS011;38032;53.326;6.472;2023-06-14T07:10:25;6.47;;;3.30;;
52015;SDS011;38032;53.326;6.472;2023-06-14T07:12:51;5.32;;;3.70;;
52015;SDS011;38032;53.326;6.472;2023-06-14T07:15:16;7.40;;;3.63;;
52015;SDS011;38032;53.326;6.472;2023-06-14T07:17:42;5.20;;;3.80;;
52015;SDS011;38032;53.326;6.472;2023-06-14T07:20:08;5.45;;;3.53;;
52015;SDS011;38032;53.326;6.472;2023-06-14T07:22:37;6.93;;;3.50;;
52015;SDS011;38032;53.326;6.472;2023-06-14T07:25:06;6.72;;;3.25;;
52015;SDS011;38032;53.326;6.472;2023-06-14T07:27:33;6.85;;;2.90;;
52015;SDS011;38032;53.326;6.472;2023-06-14T07:29:59;5.30;;;3.30;;
52015;SDS011;38032;53.326;6.472;2023-06-14T07:32:25;7.63;;;3.05;;
52015;SDS011;38032;53.326;6.472;2023-06-14T07:34:51;9.40;;;3.45;;
52015;SDS011;38032;53.326;6.472;2023-06-14T07:37:16;8.57;;;3.40;;
52015;SDS011;38032;53.326;6.472;2023-06-14T07:39:42;6.70;;;3.00;;
52015;SDS011;38032;53.326;6.472;2023-06-14T07:42:08;5.72;;;2.90;;
52015;SDS011;38032;53.326;6.472;2023-06-14T07:44:34;7.80;;;3.22;;
52015;SDS011;38032;53.326;6.472;2023-06-14T07:47:00;7.07;;;3.10;;
52015;SDS011;38032;53.326;6.472;2023-06-14T07:49:27;5.10;;;3.17;;
52015;SDS011;38032;53.326;6.472;2023-06-14T07:51:52;6.78;;;2.97;;
52015;SDS011;38032;53.326;6.472;2023-06-14T07:54:19;7.70;;;2.88;;
52015;SDS011;38032;53.326;6.472;2023-06-14T07:56:50;4.80;;;2.90;;
52015;SDS011;38032;53.326;6.472;2023-06-14T07:59:16;6.75;;;2.60;;
52015;SDS011;38032;53.326;6.472;2023-06-14T08:01:41;5.35;;;2.85;;
52015;SDS011;38032;53.326;6.472;2023-06-14T08:04:12;7.60;;;2.97;;
52015;SDS011;38032;53.326;6.472;2023-06-14T08:06:39;7.88;;;3.25;;
52015;SDS011;38032;53.326;6.472;2023-06-14T08:09:04;5.25;;;3.20;;
52015;SDS011;38032;53.326;6.472;2023-06-14T08:11:30;5.45;;;2.58;;
52015;SDS011;38032;53.326;6.472;2023-06-14T08:13:56;5.28;;;3.00;;
52015;SDS011;38032;53.326;6.472;2023-06-14T08:16:22;4.88;;;3.30;;
52015;SDS011;38032;53.326;6.472;2023-06-14T08:18:48;5.07;;;2.90;;
52015;SDS011;38032;53.326;6.472;2023-06-14T08:21:14;6.90;;;3.13;;
52015;SDS011;38032;53.326;6.472;2023-06-14T08:23:40;5.25;;;3.22;;
52015;SDS011;38032;53.326;6.472;2023-06-14T08:26:08;8.68;;;3.10;;
52015;SDS011;38032;53.326;6.472;2023-06-14T08:28:34;5.28;;;3.10;;
52015;SDS011;38032;53.326;6.472;2023-06-14T08:31:00;4.45;;;3.20;;
52015;SDS011;38032;53.326;6.472;2023-06-14T08:33:26;5.07;;;2.90;;
52015;SDS011;38032;53.326;6.472;2023-06-14T08:35:52;5.93;;;2.80;;
52015;SDS011;38032;53.326;6.472;2023-06-14T08:38:18;8.05;;;3.17;;
52015;SDS011;38032;53.326;6.472;2023-06-14T08:40:45;8.82;;;3.10;;
52015;SDS011;38032;53.326;6.472;2023-06-14T08:43:15;5.20;;;2.78;;
52015;SDS011;38032;53.326;6.472;2023-06-14T08:45:41;6.22;;;3.00;;
52015;SDS011;38032;53.326;6.472;2023-06-14T08:48:07;6.85;;;2.70;;
52015;SDS011;38032;53.326;6.472;2023-06-14T08:50:34;5.95;;;2.90;;
52015;SDS011;38032;53.326;6.472;2023-06-14T08:53:03;4.90;;;2.67;;
52015;SDS011;38032;53.326;6.472;2023-06-14T08:55:31;5.57;;;2.67;;
52015;SDS011;38032;53.326;6.472;2023-06-14T08:57:58;5.45;;;3.10;;
52015;SDS011;38032;53.326;6.472;2023-06-14T09:00:24;4.00;;;2.67;;
52015;SDS011;38032;53.326;6.472;2023-06-14T09:02:51;5.78;;;2.60;;
52015;SDS011;38032;53.326;6.472;2023-06-14T09:05:23;4.22;;;2.60;;
52015;SDS011;38032;53.326;6.472;2023-06-14T09:07:50;4.35;;;2.70;;
52015;SDS011;38032;53.326;6.472;2023-06-14T09:10:16;5.80;;;2.60;;
52015;SDS011;38032;53.326;6.472;2023-06-14T09:12:42;6.30;;;2.95;;
52015;SDS011;38032;53.326;6.472;2023-06-14T09:15:09;5.57;;;3.00;;
52015;SDS011;38032;53.326;6.472;2023-06-14T09:17:35;5.10;;;2.75;;
52015;SDS011;38032;53.326;6.472;2023-06-14T09:20:02;3.85;;;2.50;;
52015;SDS011;38032;53.326;6.472;2023-06-14T09:22:36;4.03;;;2.80;;
52015;SDS011;38032;53.326;6.472;2023-06-14T09:25:03;4.78;;;2.70;;
52015;SDS011;38032;53.326;6.472;2023-06-14T09:27:30;5.82;;;2.60;;
52015;SDS011;38032;53.326;6.472;2023-06-14T09:29:56;6.05;;;2.80;;
52015;SDS011;38032;53.326;6.472;2023-06-14T09:32:22;6.72;;;2.70;;
52015;SDS011;38032;53.326;6.472;2023-06-14T09:34:48;5.32;;;3.00;;
52015;SDS011;38032;53.326;6.472;2023-06-14T09:37:26;4.28;;;2.50;;
52015;SDS011;38032;53.326;6.472;2023-06-14T09:39:53;6.53;;;2.70;;
52015;SDS011;38032;53.326;6.472;2023-06-14T09:42:19;5.22;;;3.10;;
52015;SDS011;38032;53.326;6.472;2023-06-14T09:44:46;6.53;;;3.03;;
52015;SDS011;38032;53.326;6.472;2023-06-14T09:47:14;6.30;;;2.80;;
52015;SDS011;38032;53.326;6.472;2023-06-14T09:49:41;5.28;;;2.92;;
52015;SDS011;38032;53.326;6.472;2023-06-14T09:52:14;5.10;;;3.17;;
52015;SDS011;38032;53.326;6.472;2023-06-14T09:54:42;6.40;;;3.00;;
52015;SDS011;38032;53.326;6.472;2023-06-14T09:57:11;4.93;;;2.67;;
52015;SDS011;38032;53.326;6.472;2023-06-14T09:59:41;5.47;;;3.15;;
52015;SDS011;38032;53.326;6.472;2023-06-14T10:02:10;4.22;;;2.95;;
52015;SDS011;38032;53.326;6.472;2023-06-14T10:04:45;5.22;;;2.88;;
52015;SDS011;38032;53.326;6.472;2023-06-14T10:07:22;8.23;;;2.92;;
52015;SDS011;38032;53.326;6.472;2023-06-14T10:09:52;7.85;;;3.03;;
52015;SDS011;38032;53.326;6.472;2023-06-14T10:12:19;6.22;;;2.83;;
52015;SDS011;38032;53.326;6.472;2023-06-14T10:14:48;3.88;;;2.70;;
52015;SDS011;38032;53.326;6.472;2023-06-14T10:17:19;6.97;;;2.60;;
52015;SDS011;38032;53.326;6.472;2023-06-14T10:19:50;5.35;;;2.63;;
52015;SDS011;38032;53.326;6.472;2023-06-14T10:22:26;7.43;;;2.92;;
52015;SDS011;38032;53.326;6.472;2023-06-14T10:24:57;4.88;;;2.70;;
52015;SDS011;38032;53.326;6.472;2023-06-14T10:27:23;7.50;;;2.70;;
52015;SDS011;38032;53.326;6.472;2023-06-14T10:32:18;7.30;;;2.70;;
52015;SDS011;38032;53.326;6.472;2023-06-14T10:34:49;3.50;;;2.55;;
52015;SDS011;38032;53.326;6.472;2023-06-14T10:37:20;6.70;;;2.65;;
52015;SDS011;38032;53.326;6.472;2023-06-14T10:39:46;3.65;;;2.38;;
52015;SDS011;38032;53.326;6.472;2023-06-14T10:42:12;4.80;;;2.70;;
52015;SDS011;38032;53.326;6.472;2023-06-14T10:44:39;4.57;;;2.80;;
52015;SDS011;38032;53.326;6.472;2023-06-14T10:47:07;9.80;;;3.05;;
52015;SDS011;38032;53.326;6.472;2023-06-14T10:49:37;3.70;;;2.60;;
52015;SDS011;38032;53.326;6.472;2023-06-14T10:52:12;4.95;;;2.60;;
52015;SDS011;38032;53.326;6.472;2023-06-14T10:57:32;6.65;;;2.53;;
52015;SDS011;38032;53.326;6.472;2023-06-14T10:59:59;3.95;;;2.50;;
52015;SDS011;38032;53.326;6.472;2023-06-14T11:02:33;5.85;;;2.78;;
52015;SDS011;38032;53.326;6.472;2023-06-14T11:05:15;4.47;;;2.60;;
52015;SDS011;38032;53.326;6.472;2023-06-14T11:10:39;6.10;;;2.65;;
52015;SDS011;38032;53.326;6.472;2023-06-14T11:13:07;5.28;;;2.70;;
52015;SDS011;38032;53.326;6.472;2023-06-14T11:15:34;5.50;;;2.80;;
52015;SDS011;38032;53.326;6.472;2023-06-14T11:18:03;5.25;;;2.40;;
52015;SDS011;38032;53.326;6.472;2023-06-14T11:20:31;5.57;;;2.90;;
52015;SDS011;38032;53.326;6.472;2023-06-14T11:22:58;5.30;;;2.72;;
52015;SDS011;38032;53.326;6.472;2023-06-14T11:25:25;5.00;;;2.88;;
52015;SDS011;38032;53.326;6.472;2023-06-14T11:27:53;6.45;;;2.50;;
52015;SDS011;38032;53.326;6.472;2023-06-14T11:30:20;5.78;;;2.63;;
52015;SDS011;38032;53.326;6.472;2023-06-14T11:32:47;6.50;;;2.90;;
52015;SDS011;38032;53.326;6.472;2023-06-14T11:35:13;4.65;;;2.45;;
52015;SDS011;38032;53.326;6.472;2023-06-14T11:37:40;3.63;;;2.40;;
52015;SDS011;38032;53.326;6.472;2023-06-14T11:40:07;7.05;;;2.75;;
52015;SDS011;38032;53.326;6.472;2023-06-14T11:42:35;4.20;;;2.55;;
52015;SDS011;38032;53.326;6.472;2023-06-14T11:45:02;7.68;;;2.67;;
52015;SDS011;38032;53.326;6.472;2023-06-14T11:47:34;6.07;;;3.13;;
52015;SDS011;38032;53.326;6.472;2023-06-14T11:50:02;6.22;;;3.30;;
52015;SDS011;38032;53.326;6.472;2023-06-14T11:52:29;7.15;;;3.30;;
52015;SDS011;38032;53.326;6.472;2023-06-14T11:54:56;6.65;;;3.25;;
52015;SDS011;38032;53.326;6.472;2023-06-14T11:57:22;10.93;;;3.30;;
52015;SDS011;38032;53.326;6.472;2023-06-14T11:59:48;5.97;;;3.17;;
52015;SDS011;38032;53.326;6.472;2023-06-14T12:02:15;10.50;;;3.47;;
52015;SDS011;38032;53.326;6.472;2023-06-14T12:04:41;9.65;;;3.40;;
52015;SDS011;38032;53.326;6.472;2023-06-14T12:07:08;6.40;;;3.30;;
52015;SDS011;38032;53.326;6.472;2023-06-14T12:09:40;6.97;;;2.70;;
52015;SDS011;38032;53.326;6.472;2023-06-14T12:12:09;4.90;;;2.42;;
52015;SDS011;38032;53.326;6.472;2023-06-14T12:14:37;6.40;;;3.45;;
52015;SDS011;38032;53.326;6.472;2023-06-14T12:17:06;5.32;;;3.25;;
52015;SDS011;38032;53.326;6.472;2023-06-14T12:19:32;8.35;;;3.60;;
52015;SDS011;38032;53.326;6.472;2023-06-14T12:22:06;3.10;;;2.50;;
52015;SDS011;38032;53.326;6.472;2023-06-14T12:24:36;6.43;;;2.60;;
52015;SDS011;38032;53.326;6.472;2023-06-14T12:27:03;5.55;;;2.20;;
52015;SDS011;38032;53.326;6.472;2023-06-14T12:29:29;3.72;;;2.53;;
52015;SDS011;38032;53.326;6.472;2023-06-14T12:31:56;5.07;;;2.33;;
52015;SDS011;38032;53.326;6.472;2023-06-14T12:34:22;8.98;;;3.63;;
52015;SDS011;38032;53.326;6.472;2023-06-14T12:36:50;6.63;;;3.03;;
52015;SDS011;38032;53.326;6.472;2023-06-14T12:39:16;4.35;;;2.22;;
52015;SDS011;38032;53.326;6.472;2023-06-14T12:41:42;3.60;;;2.20;;
52015;SDS011;38032;53.326;6.472;2023-06-14T12:44:08;6.85;;;2.15;;
52015;SDS011;38032;53.326;6.472;2023-06-14T12:46:34;3.67;;;2.35;;
52015;SDS011;38032;53.326;6.472;2023-06-14T12:49:02;2.78;;;1.90;;
52015;SDS011;38032;53.326;6.472;2023-06-14T12:51:28;4.13;;;2.30;;
52015;SDS011;38032;53.326;6.472;2023-06-14T12:53:54;3.50;;;1.90;;
52015;SDS011;38032;53.326;6.472;2023-06-14T12:56:20;5.93;;;3.10;;
52015;SDS011;38032;53.326;6.472;2023-06-14T12:58:46;4.97;;;2.97;;
52015;SDS011;38032;53.326;6.472;2023-06-14T13:01:12;3.88;;;2.10;;
52015;SDS011;38032;53.326;6.472;2023-06-14T13:03:38;5.90;;;2.83;;
52015;SDS011;38032;53.326;6.472;2023-06-14T13:06:03;7.45;;;2.00;;
52015;SDS011;38032;53.326;6.472;2023-06-14T13:08:30;3.03;;;2.10;;
52015;SDS011;38032;53.326;6.472;2023-06-14T13:10:56;3.65;;;2.00;;
52015;SDS011;38032;53.326;6.472;2023-06-14T13:13:22;3.05;;;2.05;;
52015;SDS011;38032;53.326;6.472;2023-06-14T13:15:48;5.22;;;2.40;;
52015;SDS011;38032;53.326;6.472;2023-06-14T13:18:15;5.80;;;2.13;;
52015;SDS011;38032;53.326;6.472;2023-06-14T13:20:41;3.60;;;2.28;;
52015;SDS011;38032;53.326;6.472;2023-06-14T13:23:07;6.20;;;3.20;;
52015;SDS011;38032;53.326;6.472;2023-06-14T13:25:35;3.92;;;2.55;;
52015;SDS011;38032;53.326;6.472;2023-06-14T13:28:02;3.20;;;2.13;;
52015;SDS011;38032;53.326;6.472;2023-06-14T13:30:29;4.38;;;2.75;;
52015;SDS011;38032;53.326;6.472;2023-06-14T13:32:55;4.65;;;2.40;;
52015;SDS011;38032;53.326;6.472;2023-06-14T13:35:21;4.55;;;2.28;;
52015;SDS011;38032;53.326;6.472;2023-06-14T13:37:48;3.97;;;2.17;;
52015;SDS011;38032;53.326;6.472;2023-06-14T13:40:14;3.17;;;2.20;;
52015;SDS011;38032;53.326;6.472;2023-06-14T13:42:40;5.30;;;3.10;;
52015;SDS011;38032;53.326;6.472;2023-06-14T13:45:07;7.68;;;3.53;;
52015;SDS011;38032;53.326;6.472;2023-06-14T13:47:33;7.85;;;3.38;;
52015;SDS011;38032;53.326;6.472;2023-06-14T13:49:59;6.60;;;3.13;;
52015;SDS011;38032;53.326;6.472;2023-06-14T13:52:25;6.35;;;2.80;;
52015;SDS011;38032;53.326;6.472;2023-06-14T13:54:52;6.55;;;3.17;;
52015;SDS011;38032;53.326;6.472;2023-06-14T13:57:17;8.98;;;3.40;;
52015;SDS011;38032;53.326;6.472;2023-06-14T13:59:43;10.88;;;3.78;;
52015;SDS011;38032;53.326;6.472;2023-06-14T14:02:09;5.82;;;3.03;;
52015;SDS011;38032;53.326;6.472;2023-06-14T14:04:36;5.90;;;3.40;;
52015;SDS011;38032;53.326;6.472;2023-06-14T14:07:03;8.32;;;3.10;;
52015;SDS011;38032;53.326;6.472;2023-06-14T14:09:29;4.88;;;3.40;;
52015;SDS011;38032;53.326;6.472;2023-06-14T14:11:55;5.20;;;2.90;;
52015;SDS011;38032;53.326;6.472;2023-06-14T14:14:23;9.63;;;3.40;;
52015;SDS011;38032;53.326;6.472;2023-06-14T14:16:49;9.20;;;3.17;;
52015;SDS011;38032;53.326;6.472;2023-06-14T14:19:17;6.40;;;2.97;;
52015;SDS011;38032;53.326;6.472;2023-06-14T14:21:44;6.13;;;3.22;;
52015;SDS011;38032;53.326;6.472;2023-06-14T14:24:10;7.18;;;3.38;;
52015;SDS011;38032;53.326;6.472;2023-06-14T14:26:36;7.47;;;3.30;;
52015;SDS011;38032;53.326;6.472;2023-06-14T14:29:02;5.97;;;3.10;;
52015;SDS011;38032;53.326;6.472;2023-06-14T14:31:28;6.70;;;3.28;;
52015;SDS011;38032;53.326;6.472;2023-06-14T14:33:54;5.55;;;3.35;;
52015;SDS011;38032;53.326;6.472;2023-06-14T14:36:20;6.18;;;3.10;;
52015;SDS011;38032;53.326;6.472;2023-06-14T14:38:45;7.68;;;3.03;;
52015;SDS011;38032;53.326;6.472;2023-06-14T14:41:12;4.88;;;2.88;;
52015;SDS011;38032;53.326;6.472;2023-06-14T14:43:38;4.85;;;3.15;;
52015;SDS011;38032;53.326;6.472;2023-06-14T14:46:04;6.30;;;2.75;;
52015;SDS011;38032;53.326;6.472;2023-06-14T14:48:30;6.55;;;3.67;;
52015;SDS011;38032;53.326;6.472;2023-06-14T14:50:56;5.55;;;3.08;;
52015;SDS011;38032;53.326;6.472;2023-06-14T14:53:22;8.48;;;3.58;;
52015;SDS011;38032;53.326;6.472;2023-06-14T14:55:48;6.03;;;3.25;;
52015;SDS011;38032;53.326;6.472;2023-06-14T14:58:14;4.88;;;2.83;;
52015;SDS011;38032;53.326;6.472;2023-06-14T15:00:43;7.95;;;3.17;;